createdAt,value
2022-08-14T00:01:55.183Z,2.83
2022-08-14T00:04:34.817Z,2.60
2022-08-14T00:07:11.462Z,2.90
2022-08-14T00:10:02.258Z,2.63
2022-08-14T00:12:33.726Z,2.60
2022-08-14T00:15:11.835Z,2.67
2022-08-14T00:17:48.477Z,2.70
2022-08-14T00:20:30.492Z,2.65
2022-08-14T00:23:12.069Z,2.58
2022-08-14T00:25:43.709Z,2.95
2022-08-14T00:28:32.564Z,2.60
2022-08-14T00:31:04.758Z,2.47
2022-08-14T00:33:51.482Z,2.45
2022-08-14T00:36:36.153Z,2.67
2022-08-14T00:39:09.871Z,2.70
2022-08-14T00:41:39.059Z,2.70
2022-08-14T00:44:07.243Z,2.67
2022-08-14T00:46:37.716Z,2.70
2022-08-14T00:49:05.853Z,2.63
2022-08-14T00:51:38.011Z,2.80
2022-08-14T00:54:11.073Z,3.03
2022-08-14T00:56:49.933Z,2.70
2022-08-14T00:59:17.603Z,2.75
2022-08-14T01:01:48.592Z,3.05
2022-08-14T01:04:51.045Z,2.92
2022-08-14T01:07:08.074Z,2.50
2022-08-14T01:09:37.569Z,3.03
2022-08-14T01:12:07.807Z,3.20
2022-08-14T01:14:36.147Z,2.83
2022-08-14T01:17:05.566Z,2.92
2022-08-14T01:19:54.685Z,2.95
2022-08-14T01:22:26.684Z,2.90
2022-08-14T01:24:54.878Z,3.35
2022-08-14T01:27:25.013Z,3.33
2022-08-14T01:29:58.764Z,3.10
2022-08-14T01:35:18.129Z,3.42
2022-08-14T01:37:54.636Z,3.42
2022-08-14T01:40:25.610Z,3.13
2022-08-14T01:43:02.757Z,3.13
2022-08-14T01:45:31.513Z,3.30
2022-08-14T01:48:13.403Z,2.90
2022-08-14T01:50:42.563Z,3.15
2022-08-14T01:53:12.566Z,3.25
2022-08-14T01:55:40.706Z,3.13
2022-08-14T01:58:20.157Z,3.10
2022-08-14T02:00:54.799Z,3.80
2022-08-14T02:03:29.980Z,3.33
2022-08-14T02:06:00.020Z,3.17
2022-08-14T02:08:35.089Z,3.63
2022-08-14T02:11:22.410Z,3.30
2022-08-14T02:13:52.874Z,3.20
2022-08-14T02:16:26.258Z,3.15
2022-08-14T02:18:56.426Z,3.30
2022-08-14T02:21:26.919Z,2.92
2022-08-14T02:23:57.375Z,3.00
2022-08-14T02:26:29.167Z,3.33
2022-08-14T02:29:03.463Z,3.17
2022-08-14T02:31:42.260Z,2.72
2022-08-14T02:34:20.337Z,2.80
2022-08-14T02:37:06.273Z,2.85
2022-08-14T02:39:38.346Z,3.20
2022-08-14T02:42:13.215Z,2.90
2022-08-14T02:44:43.185Z,2.90
2022-08-14T02:47:20.812Z,3.13
2022-08-14T02:49:50.597Z,2.90
2022-08-14T02:52:26.736Z,2.95
2022-08-14T02:55:19.710Z,2.90
2022-08-14T02:57:51.909Z,3.10
2022-08-14T03:00:26.267Z,3.20
2022-08-14T03:02:58.784Z,3.13
2022-08-14T03:05:32.856Z,3.10
2022-08-14T03:08:09.199Z,2.90
2022-08-14T03:10:41.700Z,3.00
2022-08-14T03:13:19.132Z,2.83
2022-08-14T03:15:55.888Z,3.30
2022-08-14T03:18:31.563Z,3.13
2022-08-14T03:21:01.611Z,3.63
2022-08-14T03:23:36.607Z,3.60
2022-08-14T03:26:08.653Z,3.10
2022-08-14T03:28:41.269Z,3.97
2022-08-14T03:31:13.359Z,3.20
2022-08-14T03:33:41.887Z,3.13
2022-08-14T03:37:51.186Z,3.40
2022-08-14T03:39:13.230Z,3.20
2022-08-14T03:41:48.622Z,3.30
2022-08-14T03:45:27.957Z,3.45
2022-08-14T03:47:04.443Z,3.33
2022-08-14T03:49:33.946Z,3.60
2022-08-14T03:52:04.635Z,3.53
2022-08-14T03:54:35.758Z,3.05
2022-08-14T03:57:05.415Z,3.58
2022-08-14T03:59:34.035Z,3.40
2022-08-14T04:02:04.449Z,3.30
2022-08-14T04:04:33.641Z,3.60
2022-08-14T04:07:01.623Z,3.10
2022-08-14T04:09:29.467Z,3.65
2022-08-14T04:11:59.926Z,3.40
2022-08-14T04:14:30.994Z,3.22
2022-08-14T04:17:05.051Z,3.20
2022-08-14T04:19:38.003Z,3.90
2022-08-14T04:22:06.265Z,3.40
2022-08-14T04:24:37.829Z,3.78
2022-08-14T04:27:09.373Z,2.92
2022-08-14T04:29:39.727Z,3.47
2022-08-14T04:33:01.835Z,3.28
2022-08-14T04:34:57.031Z,3.50
2022-08-14T04:37:43.377Z,3.72
2022-08-14T04:40:31.636Z,3.53
2022-08-14T04:43:17.711Z,3.30
2022-08-14T04:45:50.996Z,3.30
2022-08-14T04:48:39.645Z,3.92
2022-08-14T04:51:11.654Z,3.60
2022-08-14T04:53:43.979Z,3.50
2022-08-14T04:56:31.626Z,3.53
2022-08-14T04:59:10.158Z,3.28
2022-08-14T05:01:41.706Z,3.78
2022-08-14T05:04:19.918Z,3.20
2022-08-14T05:06:53.667Z,4.13
2022-08-14T05:09:22.646Z,3.70
2022-08-14T05:11:51.589Z,3.85
2022-08-14T05:14:46.399Z,3.78
2022-08-14T05:17:11.440Z,3.50
2022-08-14T05:19:44.756Z,3.95
2022-08-14T05:22:27.084Z,4.07
2022-08-14T05:24:55.089Z,3.90
2022-08-14T05:27:24.052Z,4.57
2022-08-14T05:29:55.296Z,4.43
2022-08-14T05:32:27.374Z,4.20
2022-08-14T05:34:58.288Z,4.78
2022-08-14T05:37:27.241Z,4.25
2022-08-14T05:39:56.317Z,4.47
2022-08-14T05:42:29.490Z,4.10
2022-08-14T05:45:00.246Z,4.28
2022-08-14T05:47:38.919Z,3.95
2022-08-14T05:50:09.665Z,3.88
2022-08-14T05:52:45.457Z,3.50
2022-08-14T05:55:13.182Z,4.47
2022-08-14T05:57:49.589Z,4.25
2022-08-14T06:00:25.015Z,4.00
2022-08-14T06:03:00.191Z,4.60
2022-08-14T06:05:29.656Z,4.18
2022-08-14T06:07:58.474Z,4.47
2022-08-14T06:10:28.184Z,3.92
2022-08-14T06:13:05.761Z,4.00
2022-08-14T06:15:33.586Z,4.28
2022-08-14T06:18:03.001Z,3.88
2022-08-14T06:20:31.969Z,3.80
2022-08-14T06:23:02.327Z,4.07
2022-08-14T06:25:30.190Z,4.03
2022-08-14T06:28:02.132Z,4.00
2022-08-14T06:30:45.734Z,4.00
2022-08-14T06:33:17.954Z,4.10
2022-08-14T06:35:47.243Z,4.00
2022-08-14T06:38:19.166Z,4.18
2022-08-14T06:40:47.296Z,3.88
2022-08-14T06:43:16.934Z,4.00
2022-08-14T06:45:53.959Z,4.47
2022-08-14T06:48:25.986Z,4.00
2022-08-14T06:50:58.061Z,4.53
2022-08-14T06:53:28.027Z,3.80
2022-08-14T06:55:59.563Z,4.32
2022-08-14T06:58:30.732Z,4.57
2022-08-14T07:01:20.387Z,4.78
2022-08-14T07:04:22.467Z,4.68
2022-08-14T07:06:51.161Z,4.07
2022-08-14T07:09:23.080Z,4.10
2022-08-14T07:11:51.678Z,4.50
2022-08-14T07:14:19.883Z,4.25
2022-08-14T07:16:47.566Z,3.97
2022-08-14T07:19:21.035Z,4.28
2022-08-14T07:21:49.185Z,3.90
2022-08-14T07:24:26.510Z,4.05
2022-08-14T07:26:58.936Z,4.55
2022-08-14T07:29:28.760Z,4.10
2022-08-14T07:31:56.780Z,3.72
2022-08-14T07:34:36.362Z,4.18
2022-08-14T07:37:04.662Z,4.18
2022-08-14T07:39:34.285Z,4.50
2022-08-14T07:42:02.302Z,4.30
2022-08-14T07:44:35.762Z,4.13
2022-08-14T07:47:15.830Z,3.70
2022-08-14T07:49:55.691Z,4.35
2022-08-14T07:52:30.344Z,4.18
2022-08-14T07:54:58.986Z,4.00
2022-08-14T07:57:27.453Z,3.70
2022-08-14T07:59:55.455Z,4.45
2022-08-14T08:02:23.842Z,4.55
2022-08-14T08:04:58.971Z,3.88
2022-08-14T08:07:31.960Z,4.03
2022-08-14T08:10:46.370Z,3.92
2022-08-14T08:13:13.860Z,3.85
2022-08-14T08:15:44.770Z,4.03
2022-08-14T08:18:27.671Z,4.22
2022-08-14T08:21:00.261Z,3.53
2022-08-14T08:23:40.159Z,4.55
2022-08-14T08:26:09.092Z,3.60
2022-08-14T08:28:36.828Z,3.85
2022-08-14T08:31:08.246Z,3.60
2022-08-14T08:33:37.783Z,3.47
2022-08-14T08:36:12.825Z,3.97
2022-08-14T08:39:15.206Z,3.90
2022-08-14T08:41:44.174Z,3.55
2022-08-14T08:44:17.385Z,3.83
2022-08-14T08:47:03.675Z,3.78
2022-08-14T08:49:43.229Z,4.15
2022-08-14T08:52:24.933Z,3.90
2022-08-14T08:54:56.654Z,3.63
2022-08-14T08:57:24.569Z,3.80
2022-08-14T08:59:55.170Z,4.25
2022-08-14T09:02:27.514Z,4.05
2022-08-14T09:05:03.311Z,3.75
2022-08-14T09:07:32.424Z,3.53
2022-08-14T09:10:01.259Z,4.18
2022-08-14T09:12:31.538Z,4.30
2022-08-14T09:15:01.849Z,4.13
2022-08-14T09:17:29.732Z,3.97
2022-08-14T09:20:01.983Z,4.05
2022-08-14T09:22:36.698Z,3.95
2022-08-14T09:25:10.707Z,3.58
2022-08-14T09:27:39.631Z,4.00
2022-08-14T09:30:31.015Z,3.67
2022-08-14T09:33:15.706Z,3.42
2022-08-14T09:36:02.855Z,3.70
2022-08-14T09:38:45.235Z,3.65
2022-08-14T09:41:24.861Z,3.40
2022-08-14T09:43:59.977Z,3.58
2022-08-14T09:46:32.311Z,3.63
2022-08-14T09:49:01.473Z,4.03
2022-08-14T09:51:33.024Z,3.80
2022-08-14T09:54:22.613Z,3.88
2022-08-14T09:56:57.419Z,3.55
2022-08-14T09:59:28.274Z,4.30
2022-08-14T10:02:01.107Z,3.28
2022-08-14T10:04:36.535Z,3.47
2022-08-14T10:07:08.213Z,3.63
2022-08-14T10:09:59.973Z,3.70
2022-08-14T10:12:48.549Z,3.88
2022-08-14T10:15:22.562Z,3.63
2022-08-14T10:18:03.759Z,3.50
2022-08-14T10:20:39.387Z,3.95
2022-08-14T10:23:17.826Z,3.15
2022-08-14T10:25:51.100Z,3.40
2022-08-14T10:28:39.065Z,3.47
2022-08-14T10:31:19.934Z,3.67
2022-08-14T10:34:12.714Z,3.40
2022-08-14T10:36:44.995Z,3.80
2022-08-14T10:39:18.507Z,3.55
2022-08-14T10:41:53.876Z,3.65
2022-08-14T10:44:29.810Z,3.40
2022-08-14T10:47:36.587Z,3.10
2022-08-14T10:49:57.849Z,3.22
2022-08-14T10:52:29.804Z,3.42
2022-08-14T10:55:08.615Z,3.60
2022-08-14T10:57:48.933Z,3.22
2022-08-14T11:00:30.240Z,3.53
2022-08-14T11:03:09.725Z,3.60
2022-08-14T11:05:43.584Z,3.58
2022-08-14T11:08:14.949Z,3.47
2022-08-14T11:10:49.149Z,3.15
2022-08-14T11:13:23.815Z,3.60
2022-08-14T11:15:54.418Z,3.40
2022-08-14T11:18:32.396Z,3.47
2022-08-14T11:21:06.958Z,3.90
2022-08-14T11:23:39.782Z,3.28
2022-08-14T11:26:10.682Z,3.17
2022-08-14T11:28:47.873Z,3.35
2022-08-14T11:31:19.780Z,3.42
2022-08-14T11:33:51.213Z,3.47
2022-08-14T11:36:23.510Z,3.35
2022-08-14T11:38:51.551Z,3.30
2022-08-14T11:41:21.720Z,3.30
2022-08-14T11:43:57.689Z,4.13
2022-08-14T11:46:29.946Z,3.15
2022-08-14T11:49:06.579Z,3.63
2022-08-14T11:51:52.906Z,3.83
2022-08-14T11:54:34.939Z,3.22
2022-08-14T11:57:04.412Z,3.88
2022-08-14T11:59:34.290Z,3.35
2022-08-14T12:03:01.009Z,2.90
2022-08-14T12:04:58.687Z,3.25
2022-08-14T12:07:26.782Z,3.45
2022-08-14T12:09:59.355Z,3.67
2022-08-14T12:12:35.845Z,3.08
2022-08-14T12:15:07.020Z,3.10
2022-08-14T12:17:49.607Z,2.83
2022-08-14T12:20:29.985Z,2.95
2022-08-14T12:23:01.613Z,3.30
2022-08-14T12:25:30.018Z,3.30
2022-08-14T12:28:08.437Z,3.25
2022-08-14T12:30:42.990Z,3.15
2022-08-14T12:33:25.584Z,2.80
2022-08-14T12:35:57.985Z,2.80
2022-08-14T12:38:38.168Z,2.65
2022-08-14T12:41:11.524Z,3.00
2022-08-14T12:43:51.509Z,2.92
2022-08-14T12:46:27.138Z,3.22
2022-08-14T12:48:57.189Z,3.55
2022-08-14T12:51:27.425Z,3.17
2022-08-14T12:53:59.644Z,2.80
2022-08-14T12:56:33.479Z,2.83
2022-08-14T12:59:02.729Z,2.88
2022-08-14T13:02:00.396Z,3.75
2022-08-14T13:04:22.961Z,3.08
2022-08-14T13:06:52.873Z,3.00
2022-08-14T13:09:21.169Z,3.20
2022-08-14T13:11:58.367Z,3.03
2022-08-14T13:16:59.441Z,3.47
2022-08-14T13:19:28.414Z,2.92
2022-08-14T13:22:04.808Z,3.47
2022-08-14T13:24:35.664Z,2.95
2022-08-14T13:27:05.043Z,2.85
2022-08-14T13:29:43.851Z,3.08
2022-08-14T13:32:16.506Z,2.83
2022-08-14T13:34:46.029Z,3.00
2022-08-14T13:37:15.312Z,2.83
2022-08-14T13:39:56.431Z,2.80
2022-08-14T13:42:27.751Z,3.05
2022-08-14T13:45:00.322Z,3.08
2022-08-14T13:47:32.990Z,3.00
2022-08-14T13:50:04.670Z,3.28
2022-08-14T13:52:51.338Z,3.20
2022-08-14T13:55:23.634Z,3.20
2022-08-14T13:58:02.935Z,3.00
2022-08-14T14:00:35.334Z,3.00
2022-08-14T14:03:07.359Z,2.95
2022-08-14T14:05:53.329Z,3.78
2022-08-14T14:08:46.852Z,3.20
2022-08-14T14:11:11.129Z,3.40
2022-08-14T14:13:44.766Z,3.30
2022-08-14T14:16:15.311Z,3.47
2022-08-14T14:18:56.279Z,3.28
2022-08-14T14:21:26.553Z,3.55
2022-08-14T14:23:57.142Z,3.17
2022-08-14T14:26:25.410Z,3.50
2022-08-14T14:28:57.574Z,3.25
2022-08-14T14:31:30.368Z,3.15
2022-08-14T14:34:07.379Z,3.53
2022-08-14T14:36:45.044Z,3.15
2022-08-14T14:39:20.277Z,3.17
2022-08-14T14:41:56.069Z,3.28
2022-08-14T14:44:26.924Z,3.35
2022-08-14T14:46:56.415Z,3.20
2022-08-14T14:49:41.813Z,3.22
2022-08-14T14:52:27.289Z,3.03
2022-08-14T14:54:56.543Z,2.58
2022-08-14T14:57:30.358Z,3.20
2022-08-14T15:00:02.857Z,3.55
2022-08-14T15:02:38.253Z,3.28
2022-08-14T15:05:09.030Z,3.05
2022-08-14T15:07:37.207Z,3.13
2022-08-14T15:10:06.423Z,3.15
2022-08-14T15:12:57.466Z,3.08
2022-08-14T15:15:25.699Z,3.08
2022-08-14T15:17:55.128Z,4.05
2022-08-14T15:20:30.842Z,3.22
2022-08-14T15:23:00.969Z,3.60
2022-08-14T15:25:37.073Z,3.60
2022-08-14T15:28:12.646Z,3.30
2022-08-14T15:30:41.012Z,3.20
2022-08-14T15:33:09.756Z,3.30
2022-08-14T15:35:44.905Z,3.40
2022-08-14T15:38:17.612Z,3.22
2022-08-14T15:40:51.748Z,3.88
2022-08-14T15:43:25.502Z,3.83
2022-08-14T15:45:55.575Z,3.35
2022-08-14T15:48:23.967Z,3.35
2022-08-14T15:50:53.038Z,3.25
2022-08-14T15:53:23.318Z,3.70
2022-08-14T15:55:53.030Z,3.72
2022-08-14T15:58:21.688Z,3.63
2022-08-14T16:01:07.311Z,3.67
2022-08-14T16:03:39.803Z,3.35
2022-08-14T16:06:15.302Z,3.50
2022-08-14T16:08:50.136Z,3.42
2022-08-14T16:11:26.218Z,2.97
2022-08-14T16:13:57.517Z,3.35
2022-08-14T16:16:34.344Z,3.25
2022-08-14T16:19:20.073Z,3.63
2022-08-14T16:22:02.629Z,3.72
2022-08-14T16:25:02.690Z,3.30
2022-08-14T16:27:33.688Z,3.08
2022-08-14T16:30:06.373Z,3.38
2022-08-14T16:32:54.847Z,2.95
2022-08-14T16:35:26.276Z,3.40
2022-08-14T16:37:56.245Z,3.38
2022-08-14T16:43:04.085Z,4.05
2022-08-14T16:45:43.717Z,3.55
2022-08-14T16:48:55.263Z,3.22
2022-08-14T16:51:01.663Z,3.80
2022-08-14T16:53:37.223Z,3.55
2022-08-14T16:56:23.190Z,3.60
2022-08-14T16:59:05.761Z,4.00
2022-08-14T17:01:33.770Z,4.20
2022-08-14T17:04:06.487Z,3.67
2022-08-14T17:06:45.370Z,3.38
2022-08-14T17:09:30.450Z,3.83
2022-08-14T17:12:07.572Z,3.72
2022-08-14T17:15:03.606Z,3.63
2022-08-14T17:17:56.391Z,3.90
2022-08-14T17:20:39.351Z,3.75
2022-08-14T17:23:15.054Z,4.03
2022-08-14T17:25:49.428Z,3.78
2022-08-14T17:28:49.847Z,3.78
2022-08-14T17:31:08.526Z,3.65
2022-08-14T17:33:40.433Z,4.00
2022-08-14T17:36:21.222Z,3.60
2022-08-14T17:39:00.094Z,3.63
2022-08-14T17:41:37.435Z,3.58
2022-08-14T17:44:20.249Z,3.77
2022-08-14T17:46:55.202Z,3.50
2022-08-14T17:49:27.104Z,3.30
2022-08-14T17:52:07.890Z,3.70
2022-08-14T17:54:58.798Z,3.45
2022-08-14T17:57:35.313Z,4.03
2022-08-14T18:00:12.322Z,3.50
2022-08-14T18:02:51.054Z,3.72
2022-08-14T18:05:23.506Z,3.80
2022-08-14T18:08:32.389Z,3.30
2022-08-14T18:10:58.106Z,3.30
2022-08-14T18:13:50.366Z,3.83
2022-08-14T18:16:20.145Z,3.63
2022-08-14T18:18:51.233Z,4.00
2022-08-14T18:21:42.448Z,3.75
2022-08-14T18:24:19.888Z,3.63
2022-08-14T18:27:01.864Z,3.38
2022-08-14T18:29:32.641Z,3.60
2022-08-14T18:32:00.692Z,3.83
2022-08-14T18:34:37.935Z,3.45
2022-08-14T18:37:21.917Z,3.83
2022-08-14T18:40:01.112Z,4.38
2022-08-14T18:42:45.846Z,3.95
2022-08-14T18:45:18.920Z,3.22
2022-08-14T18:48:28.665Z,3.78
2022-08-14T18:51:45.207Z,3.40
2022-08-14T18:54:29.951Z,3.65
2022-08-14T18:57:03.318Z,3.90
2022-08-14T18:59:36.446Z,4.22
2022-08-14T19:02:42.785Z,4.25
2022-08-14T19:05:13.424Z,3.88
2022-08-14T19:07:43.503Z,4.07
2022-08-14T19:10:37.260Z,3.75
2022-08-14T19:13:11.874Z,3.58
2022-08-14T19:15:42.611Z,3.38
2022-08-14T19:18:27.956Z,3.65
2022-08-14T19:20:59.594Z,3.87
2022-08-14T19:23:42.239Z,3.78
2022-08-14T19:26:36.773Z,3.95
2022-08-14T19:29:37.828Z,4.28
2022-08-14T19:32:39.076Z,3.95
2022-08-14T19:35:50.132Z,3.80
2022-08-14T19:38:51.956Z,4.07
2022-08-14T19:41:22.400Z,3.83
2022-08-14T19:43:56.992Z,3.70
2022-08-14T19:46:37.795Z,3.95
2022-08-14T19:49:07.854Z,3.67
2022-08-14T19:51:44.543Z,4.03
2022-08-14T19:54:15.129Z,4.10
2022-08-14T19:56:45.363Z,3.85
2022-08-14T19:59:19.483Z,3.45
2022-08-14T20:01:52.141Z,4.18
2022-08-14T20:04:46.864Z,3.88
2022-08-14T20:08:00.173Z,3.65
2022-08-14T20:11:07.905Z,4.03
2022-08-14T20:13:23.522Z,3.92
2022-08-14T20:15:51.914Z,4.00
2022-08-14T20:18:50.207Z,4.05
2022-08-14T20:21:15.807Z,4.10
2022-08-14T20:23:43.603Z,3.92
2022-08-14T20:26:31.942Z,4.00
2022-08-14T20:29:07.187Z,3.97
2022-08-14T20:31:38.461Z,4.00
2022-08-14T20:34:24.723Z,3.90
2022-08-14T20:37:09.963Z,4.10
2022-08-14T20:39:54.541Z,4.20
2022-08-14T20:42:43.719Z,3.90
2022-08-14T20:45:21.562Z,4.18
2022-08-14T20:47:56.717Z,4.40
2022-08-14T20:50:28.545Z,4.22
2022-08-14T20:52:57.479Z,4.43
2022-08-14T20:55:29.258Z,3.85
2022-08-14T20:58:09.949Z,3.90
2022-08-14T21:01:00.651Z,4.28
2022-08-14T21:03:56.419Z,4.65
2022-08-14T21:06:27.750Z,4.68
2022-08-14T21:09:02.280Z,4.28
2022-08-14T21:11:30.874Z,4.32
2022-08-14T21:14:25.203Z,4.57
2022-08-14T21:16:58.646Z,4.45
2022-08-14T21:19:29.376Z,4.47
2022-08-14T21:22:00.095Z,4.55
2022-08-14T21:24:39.571Z,4.13
2022-08-14T21:27:20.151Z,4.47
2022-08-14T21:29:55.056Z,4.68
2022-08-14T21:32:35.150Z,4.80
2022-08-14T21:35:08.487Z,4.57
2022-08-14T21:37:43.669Z,4.20
2022-08-14T21:40:18.839Z,4.60
2022-08-14T21:43:00.373Z,4.45
2022-08-14T21:45:28.105Z,4.78
2022-08-14T21:47:56.403Z,4.38
2022-08-14T21:50:59.853Z,4.50
2022-08-14T21:53:15.535Z,4.72
2022-08-14T21:55:44.773Z,4.05
2022-08-14T21:58:53.229Z,4.80
2022-08-14T22:01:02.039Z,4.78
2022-08-14T22:03:35.079Z,4.55
2022-08-14T22:06:05.072Z,4.53
2022-08-14T22:08:38.410Z,4.57
2022-08-14T22:11:07.357Z,4.28
2022-08-14T22:13:46.813Z,4.82
2022-08-14T22:17:01.663Z,3.95
2022-08-14T22:19:05.603Z,4.60
2022-08-14T22:21:39.932Z,3.83
2022-08-14T22:24:12.470Z,4.43
2022-08-14T22:27:01.923Z,4.28
2022-08-14T22:29:29.942Z,4.20
2022-08-14T22:31:58.170Z,4.13
2022-08-14T22:34:26.865Z,4.43
2022-08-14T22:36:58.457Z,4.40
2022-08-14T22:40:15.370Z,4.43
2022-08-14T22:42:20.874Z,4.40
2022-08-14T22:44:51.094Z,4.72
2022-08-14T22:47:25.121Z,4.50
2022-08-14T22:50:31.831Z,4.78
2022-08-14T22:52:49.236Z,4.82
2022-08-14T22:55:17.652Z,4.53
2022-08-14T22:57:45.355Z,4.70
2022-08-14T23:00:16.647Z,4.50
2022-08-14T23:02:46.747Z,4.82
2022-08-14T23:05:15.492Z,4.30
2022-08-14T23:08:57.600Z,4.82
2022-08-14T23:10:34.845Z,4.47
2022-08-14T23:13:04.158Z,4.57
2022-08-14T23:15:33.881Z,4.70
2022-08-14T23:18:03.770Z,4.07
2022-08-14T23:20:36.336Z,4.97
2022-08-14T23:23:13.188Z,4.63
2022-08-14T23:31:34.611Z,4.80
2022-08-14T23:34:07.206Z,4.70
2022-08-14T23:36:37.579Z,4.40
2022-08-14T23:39:24.691Z,4.40
2022-08-14T23:42:02.156Z,4.90
2022-08-14T23:44:35.127Z,4.72
2022-08-14T23:47:11.922Z,5.13
2022-08-14T23:50:01.297Z,4.35
2022-08-14T23:53:06.314Z,4.43
2022-08-14T23:55:27.195Z,4.95
2022-08-14T23:57:57.269Z,5.43
